Time;durP1;ratioP1;P1;durP2;ratioP2;P2;SDS_P1;SDS_P2;PMS_P1;PMS_P2;Temp;Humidity;BMP_temperature;BMP_pressure;BME280_temperature;BME280_humidity;BME280_pressure;Samples;Min_cycle;Max_cycle;Signal;HPM_P1;HPM_P2
2022/09/30 00:01:43;;;;;;;3.97;2.30;;;12.20;66.20;;;;;;5095785;28;20039;-70
2022/09/30 00:04:23;;;;;;;3.65;2.53;;;12.10;66.20;;;;;;5098509;28;20379;-70
2022/09/30 00:06:50;;;;;;;3.65;2.50;;;12.10;66.30;;;;;;5098586;28;20050;-70
2022/09/30 00:09:16;;;;;;;3.17;2.45;;;12.10;66.40;;;;;;5098016;28;20036;-70
2022/09/30 00:11:42;;;;;;;3.53;2.97;;;12.10;66.40;;;;;;5098189;28;20042;-70
2022/09/30 00:14:15;;;;;;;4.25;2.47;;;12.10;66.50;;;;;;5081584;28;20110;-70
2022/09/30 00:16:41;;;;;;;2.53;1.88;;;12.00;66.50;;;;;;5081513;28;20092;-70
2022/09/30 00:19:07;;;;;;;2.55;2.10;;;12.00;66.50;;;;;;5081612;28;20043;-70
2022/09/30 00:21:33;;;;;;;3.20;2.17;;;12.00;66.50;;;;;;5098152;28;20558;-70
2022/09/30 00:23:59;;;;;;;2.80;2.13;;;11.90;66.40;;;;;;5097652;28;20043;-70
2022/09/30 00:26:25;;;;;;;3.17;2.53;;;11.90;66.90;;;;;;5097864;28;20168;-70
2022/09/30 00:28:57;;;;;;;3.40;2.50;;;11.90;66.50;;;;;;5098278;28;20039;-70
2022/09/30 00:31:24;;;;;;;3.13;2.40;;;11.90;66.50;;;;;;5098117;28;20062;-68
2022/09/30 00:34:05;;;;;;;2.53;2.13;;;11.90;66.40;;;;;;5097774;28;20040;-68
2022/09/30 00:36:43;;;;;;;3.50;1.98;;;11.80;66.40;;;;;;5097324;28;20054;-68
2022/09/30 00:39:12;;;;;;;3.42;2.60;;;11.80;66.40;;;;;;5097929;28;20046;-68
2022/09/30 00:41:38;;;;;;;3.15;2.35;;;11.80;66.40;;;;;;5098172;28;20404;-68
2022/09/30 00:44:42;;;;;;;2.80;2.00;;;11.70;66.30;;;;;;5098230;28;20149;-68
2022/09/30 00:47:30;;;;;;;3.40;2.17;;;11.70;66.20;;;;;;5098113;28;20507;-68
2022/09/30 00:50:00;;;;;;;3.65;2.25;;;11.60;66.20;;;;;;5067637;28;20517;-68
2022/09/30 00:52:26;;;;;;;3.47;1.90;;;11.60;66.30;;;;;;5097929;28;20068;-68
2022/09/30 00:54:53;;;;;;;2.30;1.65;;;11.60;66.40;;;;;;5097141;28;20031;-68
2022/09/30 00:57:19;;;;;;;3.17;2.60;;;11.60;66.40;;;;;;5097717;28;20054;-68
2022/09/30 00:59:49;;;;;;;3.95;3.45;;;11.60;66.30;;;;;;5096981;28;20035;-68
2022/09/30 01:02:15;;;;;;;3.00;2.50;;;11.50;65.80;;;;;;5097668;28;20056;-68
2022/09/30 01:04:43;;;;;;;2.35;1.85;;;11.40;65.50;;;;;;5096677;28;20048;-68
2022/09/30 01:07:10;;;;;;;2.30;1.80;;;11.40;65.60;;;;;;5097462;28;20039;-68
2022/09/30 01:09:39;;;;;;;2.55;1.90;;;11.30;65.80;;;;;;5097231;28;20039;-68
2022/09/30 01:12:19;;;;;;;2.97;2.15;;;11.30;66.10;;;;;;5114988;28;20514;-68
2022/09/30 01:14:46;;;;;;;2.42;1.65;;;11.20;66.10;;;;;;5096478;28;20130;-68
2022/09/30 01:17:39;;;;;;;2.58;1.90;;;11.20;66.20;;;;;;5097098;28;20035;-68
2022/09/30 01:20:28;;;;;;;3.10;2.13;;;11.10;66.70;;;;;;5097106;28;20184;-68
2022/09/30 01:23:13;;;;;;;2.20;1.70;;;11.10;66.50;;;;;;5096875;28;20517;-68
2022/09/30 01:25:41;;;;;;;2.85;2.03;;;11.10;66.50;;;;;;5079465;28;20055;-68
2022/09/30 01:28:18;;;;;;;2.28;1.70;;;11.10;66.70;;;;;;5096873;28;20039;-68
2022/09/30 01:30:58;;;;;;;3.03;1.42;;;11.00;66.70;;;;;;5097249;28;20084;-68
2022/09/30 01:34:06;;;;;;;1.88;1.45;;;11.00;66.60;;;;;;5079839;28;20546;-68
2022/09/30 01:36:42;;;;;;;2.35;2.03;;;11.00;66.60;;;;;;5096018;28;20055;-68
2022/09/30 01:39:11;;;;;;;1.88;1.40;;;10.90;66.50;;;;;;5096785;28;20047;-68
2022/09/30 01:41:49;;;;;;;1.95;1.40;;;10.90;66.50;;;;;;5095650;28;20035;-68
2022/09/30 01:44:45;;;;;;;1.85;1.60;;;10.90;66.60;;;;;;5096040;28;20047;-68
2022/09/30 01:47:37;;;;;;;2.20;1.80;;;10.90;66.60;;;;;;5087189;28;20044;-68
2022/09/30 01:50:26;;;;;;;2.40;1.52;;;10.80;66.50;;;;;;5084422;28;20040;-68
2022/09/30 01:53:05;;;;;;;2.15;1.50;;;10.80;66.50;;;;;;5096267;28;20071;-68
2022/09/30 01:55:49;;;;;;;2.10;1.77;;;10.80;66.50;;;;;;5079296;28;20145;-69
2022/09/30 01:58:27;;;;;;;1.92;1.58;;;10.80;66.50;;;;;;5089831;28;20386;-68
2022/09/30 02:00:58;;;;;;;2.33;1.48;;;10.80;66.50;;;;;;5096219;28;20051;-68
2022/09/30 02:03:36;;;;;;;2.45;1.60;;;10.80;66.50;;;;;;5088257;28;20584;-68
2022/09/30 02:06:10;;;;;;;2.50;1.70;;;10.70;66.30;;;;;;5095853;28;20039;-68
2022/09/30 02:09:04;;;;;;;1.60;1.20;;;10.70;66.30;;;;;;5079657;28;20036;-68
2022/09/30 02:11:34;;;;;;;2.10;1.50;;;10.70;66.30;;;;;;5095686;28;20168;-68
2022/09/30 02:14:12;;;;;;;2.20;1.40;;;10.60;66.30;;;;;;5095962;28;20052;-68
2022/09/30 02:16:42;;;;;;;2.20;1.38;;;10.60;66.30;;;;;;5095668;28;20044;-68
2022/09/30 02:19:17;;;;;;;2.65;1.60;;;10.60;66.30;;;;;;5076021;28;20051;-68
2022/09/30 02:21:51;;;;;;;2.20;1.40;;;10.60;66.20;;;;;;5091274;28;20486;-68
2022/09/30 02:24:24;;;;;;;2.03;1.20;;;10.60;66.10;;;;;;5095655;28;20039;-68
2022/09/30 02:26:54;;;;;;;2.00;1.45;;;10.50;66.10;;;;;;5093933;28;20040;-68
2022/09/30 02:29:26;;;;;;;1.42;1.00;;;10.50;66.30;;;;;;5095595;28;20048;-68
2022/09/30 02:31:55;;;;;;;2.65;1.38;;;10.50;66.30;;;;;;5091099;28;20063;-68
2022/09/30 02:34:35;;;;;;;1.48;1.17;;;10.50;66.30;;;;;;5095470;28;20035;-68
2022/09/30 02:37:14;;;;;;;1.80;1.40;;;10.40;66.20;;;;;;5094723;28;20043;-68
2022/09/30 02:39:52;;;;;;;2.25;1.40;;;10.40;66.40;;;;;;5095781;28;20097;-68
2022/09/30 02:42:23;;;;;;;1.83;1.40;;;10.40;66.50;;;;;;5095008;28;20039;-68
2022/09/30 02:44:51;;;;;;;1.98;1.55;;;10.40;66.50;;;;;;5095074;28;20798;-68
2022/09/30 02:47:33;;;;;;;1.50;1.10;;;10.40;66.50;;;;;;5095459;28;20043;-68
2022/09/30 02:50:11;;;;;;;2.20;1.50;;;10.30;66.40;;;;;;5079419;28;20807;-68
2022/09/30 02:52:51;;;;;;;1.30;1.00;;;10.30;66.20;;;;;;5095729;28;20047;-69
2022/09/30 02:55:39;;;;;;;1.38;1.15;;;10.30;66.00;;;;;;5094031;28;20039;-68
2022/09/30 02:58:13;;;;;;;2.38;1.65;;;10.30;66.10;;;;;;5094902;28;20122;-68
2022/09/30 03:00:39;;;;;;;1.70;1.20;;;10.20;66.00;;;;;;5095205;28;20084;-68
2022/09/30 03:03:29;;;;;;;3.40;1.42;;;10.20;66.00;;;;;;5078052;28;20304;-68
2022/09/30 03:05:55;;;;;;;1.70;1.30;;;10.20;66.00;;;;;;5098272;28;20058;-69
2022/09/30 03:08:20;;;;;;;2.00;1.42;;;10.20;65.90;;;;;;5094920;28;20402;-68
2022/09/30 03:10:51;;;;;;;2.35;1.55;;;10.10;65.80;;;;;;5095089;28;20048;-68
2022/09/30 03:13:26;;;;;;;3.30;2.38;;;10.10;65.80;;;;;;5094740;28;20043;-68
2022/09/30 03:16:04;;;;;;;2.70;1.90;;;10.10;65.70;;;;;;5094758;28;20039;-68
2022/09/30 03:19:00;;;;;;;4.80;2.20;;;10.10;65.80;;;;;;5075045;28;20040;-68
2022/09/30 03:21:56;;;;;;;2.70;1.83;;;10.00;65.90;;;;;;5089797;28;20047;-68
2022/09/30 03:24:28;;;;;;;2.85;1.90;;;10.00;66.00;;;;;;5046649;28;20059;-68
2022/09/30 03:27:39;;;;;;;3.13;1.92;;;10.00;66.00;;;;;;5094933;28;20584;-68
2022/09/30 03:30:06;;;;;;;2.63;1.90;;;10.00;65.90;;;;;;5094747;28;20050;-68
2022/09/30 03:33:06;;;;;;;4.25;2.50;;;9.90;66.00;;;;;;5095124;28;20047;-68
2022/09/30 03:36:04;;;;;;;2.75;1.90;;;9.90;65.90;;;;;;5094317;28;20513;-68
2022/09/30 03:38:42;;;;;;;2.22;1.50;;;9.90;66.30;;;;;;5095004;28;20079;-69
2022/09/30 03:41:30;;;;;;;4.03;2.20;;;9.80;65.90;;;;;;5095185;28;20082;-68
2022/09/30 03:44:04;;;;;;;2.40;1.67;;;9.80;66.00;;;;;;5087704;28;20102;-68
2022/09/30 03:46:46;;;;;;;2.72;1.85;;;9.80;66.10;;;;;;5094428;28;20093;-68
2022/09/30 03:49:22;;;;;;;1.98;1.42;;;9.80;65.80;;;;;;5094331;28;20040;-68
2022/09/30 03:51:47;;;;;;;2.00;1.40;;;9.80;65.90;;;;;;5094195;28;20118;-68
2022/09/30 03:54:13;;;;;;;2.90;2.15;;;9.70;65.90;;;;;;5094398;28;20431;-68
2022/09/30 03:56:41;;;;;;;4.03;1.85;;;9.70;66.00;;;;;;5094756;28;20399;-68
2022/09/30 03:59:31;;;;;;;1.75;1.40;;;9.70;66.20;;;;;;5094329;28;20097;-68
2022/09/30 04:01:57;;;;;;;2.53;1.73;;;9.70;66.10;;;;;;5094645;28;20055;-68
2022/09/30 04:04:23;;;;;;;1.83;1.55;;;9.60;66.10;;;;;;5091725;28;20558;-69
2022/09/30 04:06:48;;;;;;;2.58;2.05;;;9.60;66.00;;;;;;5094412;28;20093;-68
2022/09/30 04:09:14;;;;;;;4.63;1.70;;;9.60;66.10;;;;;;5077271;28;20452;-68
2022/09/30 04:11:40;;;;;;;3.10;2.03;;;9.60;66.10;;;;;;5078079;28;20058;-68
2022/09/30 04:14:06;;;;;;;2.92;1.85;;;9.60;66.20;;;;;;5094280;28;20061;-68
2022/09/30 04:16:32;;;;;;;2.75;2.10;;;9.60;66.20;;;;;;5094061;28;20097;-69
2022/09/30 04:18:58;;;;;;;2.92;2.20;;;9.60;66.20;;;;;;5094209;28;20042;-69
2022/09/30 04:21:24;;;;;;;4.00;3.20;;;9.50;66.20;;;;;;5094364;28;20125;-68
2022/09/30 04:23:50;;;;;;;3.38;2.63;;;9.50;65.90;;;;;;5094300;28;20055;-68
2022/09/30 04:26:18;;;;;;;2.80;2.20;;;9.50;65.40;;;;;;5093934;28;20503;-68
2022/09/30 04:28:45;;;;;;;2.85;2.15;;;9.50;66.00;;;;;;5094186;28;20084;-68
2022/09/30 04:31:12;;;;;;;2.67;1.95;;;9.40;65.70;;;;;;5060503;28;20383;-69
2022/09/30 04:33:39;;;;;;;2.47;1.90;;;9.40;65.90;;;;;;5077392;28;20429;-69
2022/09/30 04:36:06;;;;;;;2.47;1.80;;;9.40;66.10;;;;;;5094360;28;20122;-69
2022/09/30 04:38:32;;;;;;;2.55;2.00;;;9.30;66.20;;;;;;5094154;28;20051;-68
2022/09/30 04:41:02;;;;;;;2.50;1.75;;;9.40;66.30;;;;;;5092862;28;20040;-68
2022/09/30 04:43:28;;;;;;;2.33;1.90;;;9.40;66.30;;;;;;5110402;28;20051;-69
2022/09/30 04:45:56;;;;;;;3.60;2.28;;;9.40;66.40;;;;;;5093340;28;20040;-70
2022/09/30 04:48:21;;;;;;;2.30;1.85;;;9.40;66.50;;;;;;5093618;28;20039;-70
2022/09/30 04:50:48;;;;;;;2.42;1.92;;;9.30;66.40;;;;;;5097969;28;20035;-70
2022/09/30 04:53:14;;;;;;;2.70;2.05;;;9.40;66.40;;;;;;5097045;28;20089;-70
2022/09/30 04:55:43;;;;;;;2.72;2.03;;;9.30;66.30;;;;;;5096901;28;20038;-70
2022/09/30 04:58:10;;;;;;;3.08;1.80;;;9.30;66.40;;;;;;5096895;28;20093;-70
2022/09/30 05:00:36;;;;;;;3.05;1.70;;;9.30;66.50;;;;;;5097184;28;20546;-69
2022/09/30 05:03:02;;;;;;;2.72;1.85;;;9.30;66.50;;;;;;5094395;28;20122;-68
2022/09/30 05:05:28;;;;;;;2.92;2.22;;;9.30;66.50;;;;;;5097458;28;20039;-68
2022/09/30 05:08:00;;;;;;;2.80;1.98;;;9.30;66.10;;;;;;5097519;28;20036;-68
2022/09/30 05:10:25;;;;;;;2.83;1.90;;;9.30;65.70;;;;;;5094643;28;20038;-71
2022/09/30 05:12:52;;;;;;;2.88;2.55;;;9.30;65.70;;;;;;5095960;28;20421;-71
2022/09/30 05:15:17;;;;;;;3.55;2.53;;;9.30;65.60;;;;;;5097291;28;20040;-71
2022/09/30 05:17:43;;;;;;;2.80;2.00;;;9.20;65.30;;;;;;5097136;28;20509;-71
2022/09/30 05:20:10;;;;;;;2.85;2.10;;;9.20;65.00;;;;;;5082481;28;20127;-71
2022/09/30 05:22:37;;;;;;;2.53;2.00;;;9.20;64.60;;;;;;5078542;28;20040;-71
2022/09/30 05:25:03;;;;;;;2.20;1.80;;;9.20;64.40;;;;;;5079891;28;20083;-71
2022/09/30 05:27:29;;;;;;;2.53;1.98;;;9.10;64.00;;;;;;5097323;28;20471;-71
2022/09/30 05:29:55;;;;;;;3.50;2.00;;;9.10;63.90;;;;;;5097075;28;20118;-71
2022/09/30 05:32:21;;;;;;;2.35;2.10;;;9.00;63.70;;;;;;5097439;28;20131;-71
2022/09/30 05:34:47;;;;;;;2.78;2.10;;;9.00;63.50;;;;;;5095611;28;20509;-71
2022/09/30 05:37:13;;;;;;;1.77;1.52;;;8.90;63.40;;;;;;5052333;28;20058;-71
2022/09/30 05:39:39;;;;;;;2.38;1.92;;;8.90;63.40;;;;;;5096738;28;20475;-71
2022/09/30 05:42:04;;;;;;;1.90;1.55;;;8.80;63.30;;;;;;5080192;28;20071;-71
2022/09/30 05:44:30;;;;;;;3.10;2.15;;;8.80;63.40;;;;;;5096957;28;20092;-71
2022/09/30 05:46:57;;;;;;;2.63;1.98;;;8.80;63.50;;;;;;5096842;28;20483;-71
2022/09/30 05:49:24;;;;;;;2.40;2.10;;;8.70;63.50;;;;;;5096945;28;20040;-71
2022/09/30 05:51:50;;;;;;;2.88;2.40;;;8.70;63.60;;;;;;5096763;28;20047;-71
2022/09/30 05:54:15;;;;;;;3.42;2.60;;;8.60;63.70;;;;;;5079379;28;20034;-71
2022/09/30 05:56:41;;;;;;;4.07;3.45;;;8.60;63.80;;;;;;5061291;28;20399;-71
2022/09/30 05:59:07;;;;;;;4.80;3.08;;;8.60;63.90;;;;;;5063630;28;20044;-71
2022/09/30 06:01:33;;;;;;;5.50;3.30;;;8.50;64.10;;;;;;5079644;28;20075;-71
2022/09/30 06:03:58;;;;;;;5.72;3.70;;;8.50;64.30;;;;;;5079793;28;20048;-71
2022/09/30 06:06:24;;;;;;;5.30;3.47;;;8.40;64.50;;;;;;5096219;28;20043;-71
2022/09/30 06:08:50;;;;;;;6.47;4.47;;;8.40;64.80;;;;;;5096461;28;20092;-71
2022/09/30 06:11:18;;;;;;;8.77;4.95;;;8.40;65.20;;;;;;5079391;28;20042;-71
2022/09/30 06:13:46;;;;;;;5.50;4.15;;;8.40;65.60;;;;;;5079425;28;20555;-71
2022/09/30 06:16:12;;;;;;;6.40;5.10;;;8.30;66.00;;;;;;5096389;28;20406;-71
2022/09/30 06:18:42;;;;;;;11.13;5.88;;;8.30;66.40;;;;;;5096319;28;20043;-71
2022/09/30 06:21:11;;;;;;;11.60;7.18;;;8.30;66.80;;;;;;5095961;28;20114;-71
2022/09/30 06:23:37;;;;;;;8.77;6.32;;;8.30;67.20;;;;;;5096344;28;20441;-71
2022/09/30 06:26:05;;;;;;;13.05;7.25;;;8.30;67.50;;;;;;5095567;28;20048;-71
2022/09/30 06:28:34;;;;;;;8.75;7.22;;;8.30;68.00;;;;;;5096316;28;20039;-71
2022/09/30 06:31:00;;;;;;;10.48;7.90;;;8.30;68.40;;;;;;5095565;28;20437;-71
2022/09/30 06:33:26;;;;;;;10.82;7.63;;;8.30;68.90;;;;;;5076056;28;20042;-71
2022/09/30 06:35:52;;;;;;;10.38;8.10;;;8.30;69.20;;;;;;5072693;28;20047;-71
2022/09/30 06:38:18;;;;;;;9.95;7.55;;;8.30;69.90;;;;;;5075345;28;20036;-71
2022/09/30 06:40:48;;;;;;;9.63;7.70;;;8.30;69.90;;;;;;5070359;28;20444;-71
2022/09/30 06:43:14;;;;;;;11.23;8.40;;;8.40;70.20;;;;;;5096318;28;20047;-71
2022/09/30 06:45:39;;;;;;;11.68;9.15;;;8.40;70.50;;;;;;5095577;28;20054;-71
2022/09/30 06:48:07;;;;;;;12.93;8.82;;;8.40;70.80;;;;;;5095486;28;20047;-71
2022/09/30 06:50:33;;;;;;;13.50;8.30;;;8.50;71.10;;;;;;5095738;28;20066;-71
2022/09/30 06:53:00;;;;;;;19.48;10.93;;;8.50;71.30;;;;;;5095956;28;20395;-71
2022/09/30 06:55:28;;;;;;;25.23;11.70;;;8.50;71.60;;;;;;5095804;28;20043;-71
2022/09/30 06:57:54;;;;;;;23.40;13.13;;;8.60;71.90;;;;;;5095643;28;20078;-71
2022/09/30 07:00:21;;;;;;;25.33;13.35;;;8.60;72.10;;;;;;5095276;28;20426;-71
2022/09/30 07:02:47;;;;;;;16.85;12.57;;;8.60;72.40;;;;;;5078931;28;20043;-71
2022/09/30 07:05:14;;;;;;;22.08;14.07;;;8.60;72.90;;;;;;5094992;28;20036;-71
2022/09/30 07:07:41;;;;;;;19.73;14.32;;;8.60;73.30;;;;;;5091875;28;20036;-71
2022/09/30 07:10:07;;;;;;;18.67;14.65;;;8.80;73.70;;;;;;5091676;28;20039;-71
2022/09/30 07:12:33;;;;;;;18.48;13.90;;;8.70;74.10;;;;;;5072888;28;20039;-71
2022/09/30 07:14:59;;;;;;;18.05;15.00;;;8.70;74.50;;;;;;5094819;28;20035;-71
2022/09/30 07:17:28;;;;;;;15.82;13.40;;;8.70;74.80;;;;;;5095604;28;20047;-71
2022/09/30 07:19:54;;;;;;;16.02;13.57;;;8.80;75.20;;;;;;5095244;28;20092;-71
2022/09/30 07:22:27;;;;;;;15.07;13.38;;;8.80;75.30;;;;;;5094889;28;20052;-71
2022/09/30 07:24:53;;;;;;;20.30;14.90;;;8.90;75.60;;;;;;5078139;28;20051;-72
2022/09/30 07:27:20;;;;;;;19.70;14.13;;;8.90;75.80;;;;;;5094857;28;20055;-71
2022/09/30 07:29:46;;;;;;;18.23;14.30;;;8.90;76.00;;;;;;5094843;28;20483;-71
2022/09/30 07:32:12;;;;;;;23.52;14.80;;;9.00;76.20;;;;;;5078296;28;20032;-68
2022/09/30 07:34:41;;;;;;;18.70;14.02;;;9.00;76.30;;;;;;5094933;28;20047;-68
2022/09/30 07:37:13;;;;;;;15.38;13.40;;;9.10;76.50;;;;;;5095155;28;20039;-68
2022/09/30 07:39:40;;;;;;;17.27;14.20;;;9.20;76.70;;;;;;5095186;28;20122;-68
2022/09/30 07:42:06;;;;;;;16.48;13.40;;;9.20;76.80;;;;;;5094851;28;20119;-68
2022/09/30 07:44:32;;;;;;;15.20;13.57;;;9.20;76.90;;;;;;5077985;28;20071;-68
2022/09/30 07:46:59;;;;;;;16.45;14.13;;;9.30;77.10;;;;;;5077756;28;20441;-68
2022/09/30 07:49:25;;;;;;;18.60;13.55;;;9.40;77.20;;;;;;5094918;28;20051;-68
2022/09/30 07:51:53;;;;;;;15.95;13.55;;;9.50;77.40;;;;;;5078017;28;20036;-68
2022/09/30 07:54:22;;;;;;;18.77;13.65;;;9.50;77.60;;;;;;5094973;28;20119;-68
2022/09/30 07:56:49;;;;;;;15.48;13.27;;;9.60;77.80;;;;;;5094696;28;20071;-68
2022/09/30 07:59:15;;;;;;;14.75;11.70;;;9.70;78.10;;;;;;5095137;28;20488;-69
2022/09/30 08:01:41;;;;;;;10.50;9.05;;;9.90;78.60;;;;;;5077518;28;20082;-69
2022/09/30 08:04:09;;;;;;;9.68;8.68;;;10.00;79.10;;;;;;5094866;28;20075;-69
2022/09/30 08:06:38;;;;;;;9.10;8.00;;;10.20;79.40;;;;;;5094457;28;20036;-69
2022/09/30 08:09:04;;;;;;;8.20;6.90;;;10.50;79.80;;;;;;5094817;28;20047;-69
2022/09/30 08:11:33;;;;;;;8.90;6.78;;;10.80;79.90;;;;;;5094465;28;20046;-69
2022/09/30 08:13:59;;;;;;;7.88;5.57;;;11.20;79.60;;;;;;5094830;28;20043;-69
2022/09/30 08:16:25;;;;;;;6.22;5.35;;;11.60;78.90;;;;;;5094560;28;20043;-69
2022/09/30 08:18:59;;;;;;;8.23;6.07;;;12.00;77.70;;;;;;5095024;28;20449;-68
2022/09/30 08:21:25;;;;;;;6.00;5.10;;;12.40;76.80;;;;;;5094883;28;20498;-69
2022/09/30 08:23:51;;;;;;;6.28;5.20;;;12.80;75.40;;;;;;5092289;28;20475;-68
2022/09/30 08:26:17;;;;;;;7.65;5.53;;;13.20;74.40;;;;;;5098025;28;20059;-68
2022/09/30 08:28:47;;;;;;;7.20;5.60;;;13.60;72.80;;;;;;5098074;28;20054;-68
2022/09/30 08:31:19;;;;;;;7.70;4.78;;;14.00;71.50;;;;;;5098328;28;20075;-68
2022/09/30 08:33:44;;;;;;;15.52;5.22;;;14.30;70.10;;;;;;5098193;28;20050;-68
2022/09/30 08:36:16;;;;;;;6.40;4.70;;;14.70;69.10;;;;;;5098590;28;20043;-69
2022/09/30 08:38:42;;;;;;;7.13;5.05;;;14.90;67.40;;;;;;5098405;28;20142;-69
2022/09/30 08:41:13;;;;;;;5.72;4.88;;;15.20;66.60;;;;;;5081652;28;20514;-69
2022/09/30 08:43:48;;;;;;;5.88;4.15;;;15.50;66.10;;;;;;5097936;28;20039;-69
2022/09/30 08:46:32;;;;;;;4.22;3.83;;;15.80;64.90;;;;;;5098182;28;20082;-69
2022/09/30 08:49:37;;;;;;;5.40;3.80;;;16.10;63.80;;;;;;5093863;28;20057;-69
2022/09/30 08:52:07;;;;;;;5.30;4.10;;;16.30;62.80;;;;;;5097930;28;20043;-69
2022/09/30 08:54:34;;;;;;;5.35;4.50;;;16.60;63.20;;;;;;5081336;28;20043;-69
2022/09/30 08:57:04;;;;;;;6.93;4.85;;;16.80;61.80;;;;;;5097682;28;20040;-69
2022/09/30 08:59:35;;;;;;;7.38;5.05;;;17.00;60.70;;;;;;5077720;28;20046;-69
2022/09/30 09:02:29;;;;;;;6.03;5.05;;;17.10;60.00;;;;;;5096087;28;20391;-69
2022/09/30 09:04:57;;;;;;;;;;;17.30;59.30;;;;;;5080065;28;20055;-69
2022/09/30 09:07:44;;;;;;;4.78;3.90;;;17.40;59.40;;;;;;5097721;28;20331;-69
2022/09/30 09:10:40;;;;;;;6.78;4.50;;;17.50;59.60;;;;;;5097722;28;20046;-69
2022/09/30 09:13:27;;;;;;;4.25;3.67;;;17.60;58.50;;;;;;5080992;28;20046;-69
2022/09/30 09:16:23;;;;;;;4.80;4.00;;;17.80;58.00;;;;;;5097585;28;20042;-69
2022/09/30 09:19:14;;;;;;;3.90;3.50;;;17.90;57.80;;;;;;5097296;28;20063;-69
2022/09/30 09:21:49;;;;;;;5.57;4.88;;;18.00;57.30;;;;;;5096945;28;20042;-74
2022/09/30 09:24:26;;;;;;;6.30;5.07;;;18.10;57.10;;;;;;5080651;28;20395;-69
2022/09/30 09:26:54;;;;;;;5.53;4.93;;;18.10;56.70;;;;;;5079874;28;20083;-69
2022/09/30 09:29:32;;;;;;;6.45;5.65;;;18.20;56.30;;;;;;5097294;28;20394;-69
2022/09/30 09:31:58;;;;;;;5.80;4.88;;;18.20;55.50;;;;;;5078922;28;20027;-72
2022/09/30 09:34:25;;;;;;;5.60;4.40;;;18.20;56.00;;;;;;5079013;28;20047;-72
2022/09/30 09:37:19;;;;;;;5.75;5.10;;;18.30;56.00;;;;;;5096789;28;20681;-72
2022/09/30 09:39:59;;;;;;;6.88;4.65;;;18.30;55.80;;;;;;5094431;28;20044;-70
2022/09/30 09:42:25;;;;;;;5.32;4.10;;;18.40;55.40;;;;;;5076039;28;20052;-71
2022/09/30 09:45:00;;;;;;;5.97;4.43;;;18.40;55.50;;;;;;5093011;28;20062;-70
2022/09/30 09:47:25;;;;;;;5.10;4.60;;;18.40;55.00;;;;;;5079039;28;20066;-69
2022/09/30 09:49:58;;;;;;;5.35;4.32;;;18.50;55.20;;;;;;5096221;28;20075;-69
2022/09/30 09:52:33;;;;;;;5.35;4.82;;;18.50;55.00;;;;;;5096953;28;20073;-69
2022/09/30 09:54:59;;;;;;;4.25;3.78;;;18.60;54.60;;;;;;5096344;28;20043;-70
2022/09/30 09:57:30;;;;;;;4.97;4.30;;;18.60;54.40;;;;;;5096314;28;20039;-72
2022/09/30 10:03:17;;;;;;;8.68;5.18;;;18.70;53.80;;;;;;5095909;28;20050;-70
2022/09/30 10:05:46;;;;;;;5.72;5.13;;;18.70;53.70;;;;;;5094313;28;20090;-70
2022/09/30 10:08:18;;;;;;;5.82;4.65;;;18.60;53.90;;;;;;5085327;28;20499;-70
2022/09/30 10:10:52;;;;;;;5.25;4.38;;;18.60;53.90;;;;;;5096525;28;20031;-70
2022/09/30 10:13:20;;;;;;;4.88;4.28;;;18.60;54.20;;;;;;5095628;28;20032;-70
2022/09/30 10:15:47;;;;;;;5.68;4.68;;;18.60;53.80;;;;;;5086202;28;20071;-70
2022/09/30 10:18:20;;;;;;;5.93;4.50;;;18.60;53.90;;;;;;5073485;28;20035;-70
2022/09/30 10:20:55;;;;;;;5.25;4.00;;;18.60;53.60;;;;;;5095518;28;20398;-70
2022/09/30 10:23:35;;;;;;;4.97;4.03;;;18.60;53.50;;;;;;5096357;28;20048;-70
2022/09/30 10:26:03;;;;;;;4.68;3.60;;;18.60;53.50;;;;;;5078455;28;20139;-72
2022/09/30 10:28:32;;;;;;;4.43;3.30;;;18.60;53.70;;;;;;5077410;28;20071;-71
2022/09/30 10:31:02;;;;;;;5.90;3.88;;;18.60;54.10;;;;;;5090580;28;20483;-72
2022/09/30 10:34:12;;;;;;;4.80;3.45;;;18.60;53.90;;;;;;5091177;28;20796;-72
2022/09/30 10:36:42;;;;;;;5.18;2.90;;;18.60;53.70;;;;;;5076272;28;20040;-70
2022/09/30 10:39:18;;;;;;;5.72;3.20;;;18.60;53.90;;;;;;5091171;28;20032;-71
2022/09/30 10:41:43;;;;;;;3.58;2.72;;;18.60;54.20;;;;;;5091982;28;20389;-70
2022/09/30 10:44:17;;;;;;;4.00;2.50;;;18.60;54.10;;;;;;5074586;28;20038;-70
2022/09/30 10:46:45;;;;;;;3.13;2.70;;;18.70;53.80;;;;;;5088571;28;20043;-70
2022/09/30 10:49:26;;;;;;;4.55;2.22;;;18.60;53.60;;;;;;5091428;28;20046;-70
2022/09/30 10:51:56;;;;;;;3.08;2.25;;;18.60;53.40;;;;;;5091705;28;20063;-69
2022/09/30 10:54:34;;;;;;;2.97;1.67;;;18.60;53.80;;;;;;5091243;28;20039;-70
2022/09/30 10:57:03;;;;;;;1.98;1.30;;;18.60;53.60;;;;;;5091042;28;20099;-70
2022/09/30 10:59:36;;;;;;;2.83;1.95;;;18.70;53.90;;;;;;5073712;28;20043;-69
2022/09/30 11:02:15;;;;;;;3.07;2.00;;;18.70;54.10;;;;;;5091519;28;20101;-70
2022/09/30 11:05:12;;;;;;;1.95;1.27;;;18.70;53.30;;;;;;5091799;28;20043;-70
2022/09/30 11:08:03;;;;;;;3.15;1.88;;;18.70;52.90;;;;;;5069815;28;20055;-70
2022/09/30 11:10:40;;;;;;;3.22;1.95;;;18.70;52.80;;;;;;5090367;28;20525;-70
2022/09/30 11:13:21;;;;;;;3.15;1.52;;;18.70;53.00;;;;;;5091704;28;20035;-69
2022/09/30 11:16:04;;;;;;;2.08;1.52;;;18.80;52.50;;;;;;5091170;28;20129;-69
2022/09/30 11:19:06;;;;;;;1.92;1.02;;;18.70;52.70;;;;;;5091048;28;20530;-70
2022/09/30 11:21:53;;;;;;;2.70;1.35;;;18.80;52.40;;;;;;5090429;28;20104;-70
2022/09/30 11:24:35;;;;;;;2.13;1.55;;;18.70;52.30;;;;;;5091129;28;20062;-70
2022/09/30 11:27:33;;;;;;;2.70;1.75;;;18.80;52.50;;;;;;5092374;28;20134;-70
2022/09/30 11:30:15;;;;;;;2.80;1.67;;;18.80;52.10;;;;;;5091029;28;20044;-70
2022/09/30 11:33:08;;;;;;;2.13;1.70;;;18.70;52.30;;;;;;5090759;28;20360;-72
2022/09/30 11:35:58;;;;;;;3.53;2.08;;;18.70;52.50;;;;;;5090798;28;20071;-72
2022/09/30 11:38:52;;;;;;;3.75;2.47;;;18.80;52.70;;;;;;5090780;28;20552;-71
2022/09/30 11:41:23;;;;;;;3.20;2.30;;;18.80;52.30;;;;;;5090128;28;20126;-71
2022/09/30 11:44:08;;;;;;;4.07;2.50;;;18.80;52.40;;;;;;5090987;28;20479;-72
2022/09/30 11:46:42;;;;;;;2.97;1.90;;;18.90;52.20;;;;;;5090771;28;20054;-72
2022/09/30 11:49:33;;;;;;;4.07;2.22;;;18.90;52.30;;;;;;5090748;28;20043;-72
2022/09/30 11:52:08;;;;;;;4.70;2.80;;;18.90;51.80;;;;;;5090693;28;20462;-71
2022/09/30 11:54:52;;;;;;;3.63;2.75;;;18.90;51.90;;;;;;5090052;28;20036;-71
2022/09/30 11:57:28;;;;;;;3.70;2.38;;;19.00;50.80;;;;;;5089694;28;20063;-71
2022/09/30 11:59:56;;;;;;;3.85;2.50;;;19.00;51.10;;;;;;5094316;28;20114;-72
2022/09/30 12:02:39;;;;;;;3.20;2.28;;;19.00;51.20;;;;;;5094294;28;20043;-71
2022/09/30 12:05:19;;;;;;;3.55;2.40;;;19.00;50.90;;;;;;5094121;28;20066;-72
2022/09/30 12:08:03;;;;;;;4.60;2.50;;;19.00;50.40;;;;;;5095076;28;20046;-71
2022/09/30 12:10:37;;;;;;;3.00;2.70;;;19.00;49.80;;;;;;5094779;28;20038;-71
2022/09/30 12:13:12;;;;;;;6.00;3.10;;;18.90;49.90;;;;;;5094704;28;20032;-71
2022/09/30 12:15:41;;;;;;;3.85;2.42;;;19.00;50.20;;;;;;5094591;28;20066;-72
2022/09/30 12:18:18;;;;;;;3.63;2.20;;;18.90;50.30;;;;;;5093969;28;20051;-70
2022/09/30 12:20:52;;;;;;;4.95;2.00;;;18.90;49.30;;;;;;5093645;28;20046;-71
2022/09/30 12:23:54;;;;;;;3.47;2.50;;;18.80;49.60;;;;;;5094187;28;20043;-71
2022/09/30 12:26:20;;;;;;;3.28;2.22;;;18.80;49.50;;;;;;5082071;28;20048;-71
2022/09/30 12:32:07;;;;;;;3.42;2.42;;;18.70;50.10;;;;;;5093304;28;20090;-71
2022/09/30 12:34:39;;;;;;;4.30;2.35;;;18.70;50.20;;;;;;5077058;28;20083;-71
2022/09/30 12:37:25;;;;;;;3.88;2.45;;;18.70;50.00;;;;;;5093597;28;20424;-71
2022/09/30 12:40:10;;;;;;;3.45;2.60;;;18.70;50.00;;;;;;5093380;28;20047;-71
2022/09/30 12:42:58;;;;;;;6.13;2.65;;;18.60;50.40;;;;;;5075854;28;20055;-71
2022/09/30 12:46:13;;;;;;;4.65;3.10;;;18.70;50.60;;;;;;5093880;28;20522;-71
2022/09/30 12:48:53;;;;;;;3.58;3.20;;;18.70;50.70;;;;;;5071697;28;20538;-71
2022/09/30 12:51:30;;;;;;;5.07;3.70;;;18.60;50.20;;;;;;5092623;28;20036;-71
2022/09/30 12:54:04;;;;;;;5.03;3.47;;;18.60;50.20;;;;;;5094000;28;20038;-71
2022/09/30 12:56:32;;;;;;;3.58;3.10;;;18.60;50.10;;;;;;5092901;28;20480;-71
2022/09/30 12:58:59;;;;;;;3.38;3.03;;;18.60;49.60;;;;;;5093042;28;20591;-71
2022/09/30 13:01:29;;;;;;;4.07;3.33;;;18.60;49.40;;;;;;5092946;28;20044;-69
2022/09/30 13:04:00;;;;;;;3.72;3.10;;;18.60;49.40;;;;;;5093945;28;20078;-69
2022/09/30 13:06:47;;;;;;;3.53;3.20;;;18.60;49.50;;;;;;5092818;28;20437;-69
2022/09/30 13:09:15;;;;;;;5.63;3.45;;;18.50;49.30;;;;;;5092421;28;20096;-69
2022/09/30 13:11:45;;;;;;;4.95;4.22;;;18.60;49.50;;;;;;5077015;28;20463;-68
2022/09/30 13:14:43;;;;;;;5.20;3.92;;;18.50;49.50;;;;;;5093785;28;20129;-68
2022/09/30 13:17:12;;;;;;;5.50;3.90;;;18.50;49.50;;;;;;5085532;28;20398;-68
2022/09/30 13:19:44;;;;;;;3.78;3.08;;;18.50;49.70;;;;;;5097405;28;20351;-68
2022/09/30 13:22:19;;;;;;;4.97;3.45;;;18.50;49.90;;;;;;5092690;28;20031;-68
2022/09/30 13:25:03;;;;;;;3.67;2.80;;;18.50;49.70;;;;;;5097028;28;20044;-68
2022/09/30 13:27:38;;;;;;;3.90;3.38;;;18.50;49.70;;;;;;5079132;28;20043;-68